createdAt,value
2017-05-03T00:01:37.833Z,5.50
2017-05-03T00:04:05.474Z,5.50
2017-05-03T00:06:33.449Z,5.50
2017-05-03T00:09:01.094Z,5.40
2017-05-03T00:11:29.430Z,5.40
2017-05-03T00:13:58.229Z,5.40
2017-05-03T00:16:26.640Z,5.40
2017-05-03T00:18:55.043Z,5.30
2017-05-03T00:21:23.008Z,5.30
2017-05-03T00:23:50.656Z,5.20
2017-05-03T00:26:18.303Z,5.20
2017-05-03T00:28:47.068Z,5.20
2017-05-03T00:31:14.762Z,5.20
2017-05-03T00:33:43.184Z,5.10
2017-05-03T00:36:11.152Z,5.10
2017-05-03T00:38:38.827Z,5.00
2017-05-03T00:41:07.217Z,5.00
2017-05-03T00:43:35.926Z,5.10
2017-05-03T00:46:03.586Z,5.00
2017-05-03T00:48:31.233Z,5.20
2017-05-03T00:50:59.273Z,5.00
2017-05-03T00:53:26.912Z,4.90
2017-05-03T00:55:55.422Z,4.90
2017-05-03T00:58:23.445Z,4.80
2017-05-03T01:00:51.092Z,4.80
2017-05-03T01:03:19.517Z,4.80
2017-05-03T01:05:48.235Z,4.70
2017-05-03T01:08:16.848Z,4.70
2017-05-03T01:10:45.295Z,4.70
2017-05-03T01:13:13.259Z,4.70
2017-05-03T01:15:41.662Z,4.80
2017-05-03T01:18:09.297Z,4.70
2017-05-03T01:20:37.299Z,4.80
2017-05-03T01:23:04.929Z,4.80
2017-05-03T01:25:33.337Z,4.80
2017-05-03T01:28:02.061Z,4.70
2017-05-03T01:30:29.709Z,4.60
2017-05-03T01:32:57.345Z,4.60
2017-05-03T01:35:25.270Z,4.50
2017-05-03T01:37:52.907Z,4.50
2017-05-03T01:40:21.353Z,4.60
2017-05-03T01:42:49.366Z,4.50
2017-05-03T01:45:17.006Z,4.50
2017-05-03T01:47:44.661Z,4.50
2017-05-03T01:50:12.627Z,4.50
2017-05-03T01:52:41.035Z,4.50
2017-05-03T01:55:09.437Z,4.40
2017-05-03T01:57:37.404Z,4.40
2017-05-03T02:00:05.057Z,4.30
2017-05-03T02:02:32.701Z,4.30
2017-05-03T02:05:01.879Z,4.30
2017-05-03T02:07:29.560Z,4.20
2017-05-03T02:09:57.193Z,4.30
2017-05-03T02:12:25.222Z,4.20
2017-05-03T02:14:52.885Z,4.10
2017-05-03T02:17:20.540Z,4.10
2017-05-03T02:19:48.565Z,4.10
2017-05-03T02:22:16.215Z,4.20
2017-05-03T02:24:43.861Z,4.20
2017-05-03T02:27:12.652Z,4.20
2017-05-03T02:29:40.293Z,4.10
2017-05-03T02:32:08.708Z,4.10
2017-05-03T02:34:36.725Z,4.00
2017-05-03T02:37:04.360Z,4.00
2017-05-03T02:39:32.001Z,4.00
2017-05-03T02:41:59.965Z,4.00
2017-05-03T02:44:28.403Z,4.00
2017-05-03T02:46:56.042Z,3.90
2017-05-03T02:49:23.999Z,4.00
2017-05-03T02:51:51.636Z,3.90
2017-05-03T02:54:19.281Z,4.00
2017-05-03T02:56:47.264Z,4.00
2017-05-03T02:59:15.669Z,3.90
2017-05-03T03:01:43.307Z,3.80
2017-05-03T03:04:11.329Z,3.90
2017-05-03T03:06:38.965Z,4.00
2017-05-03T03:09:06.637Z,3.90
2017-05-03T03:11:34.677Z,3.80
2017-05-03T03:14:02.318Z,3.70
2017-05-03T03:16:29.950Z,3.70
2017-05-03T03:18:57.922Z,3.70
2017-05-03T03:21:25.585Z,3.70
2017-05-03T03:23:53.228Z,3.70
2017-05-03T03:26:21.309Z,3.70
2017-05-03T03:28:48.941Z,3.60
2017-05-03T03:31:16.591Z,3.60
2017-05-03T03:33:45.291Z,3.60
2017-05-03T03:36:13.721Z,3.50
2017-05-03T03:38:41.364Z,3.40
2017-05-03T03:41:10.126Z,3.50
2017-05-03T03:43:37.771Z,3.50
2017-05-03T03:46:05.401Z,3.60
2017-05-03T03:48:33.333Z,3.60
2017-05-03T03:51:00.983Z,3.60
2017-05-03T03:53:28.647Z,3.60
2017-05-03T03:55:56.630Z,3.60
2017-05-03T03:58:25.030Z,3.50
2017-05-03T04:00:53.434Z,3.60
2017-05-03T04:03:21.405Z,3.50
2017-05-03T04:05:49.050Z,3.60
2017-05-03T04:08:16.734Z,3.60
2017-05-03T04:10:44.785Z,3.70
2017-05-03T04:13:12.417Z,3.70
2017-05-03T04:15:40.825Z,3.80
2017-05-03T04:18:08.777Z,3.70
2017-05-03T04:20:36.418Z,3.80
2017-05-03T04:23:04.863Z,3.90
2017-05-03T04:25:32.896Z,3.80
2017-05-03T04:28:00.533Z,4.00
2017-05-03T04:30:28.173Z,4.10
2017-05-03T04:32:56.104Z,4.10
2017-05-03T04:35:23.802Z,4.20
2017-05-03T04:37:51.449Z,4.20
2017-05-03T04:40:19.483Z,4.40
2017-05-03T04:42:47.117Z,4.50
2017-05-03T04:45:14.756Z,4.60
2017-05-03T04:47:43.541Z,4.80
2017-05-03T04:50:12.146Z,4.90
2017-05-03T04:52:39.821Z,4.80
2017-05-03T04:55:08.547Z,5.20
2017-05-03T04:57:36.189Z,5.20
2017-05-03T05:00:03.828Z,5.40
2017-05-03T05:02:31.776Z,5.70
2017-05-03T05:04:59.414Z,5.90
2017-05-03T05:07:27.818Z,6.40
2017-05-03T05:09:57.416Z,6.50
2017-05-03T05:12:25.825Z,6.80
2017-05-03T05:14:53.460Z,6.70
2017-05-03T05:17:21.451Z,7.00
2017-05-03T05:19:49.085Z,7.20
2017-05-03T05:22:16.720Z,7.30
2017-05-03T05:24:44.695Z,7.50
2017-05-03T05:27:12.333Z,7.70
2017-05-03T05:29:39.964Z,8.20
2017-05-03T05:32:07.948Z,8.50
2017-05-03T05:34:36.352Z,9.00
2017-05-03T05:37:04.768Z,9.40
2017-05-03T05:39:32.767Z,9.30
2017-05-03T05:42:01.190Z,10.10
2017-05-03T05:44:28.838Z,10.00
2017-05-03T05:46:56.797Z,10.50
2017-05-03T05:49:24.432Z,10.80
2017-05-03T05:51:52.851Z,11.60
2017-05-03T05:54:20.850Z,11.60
2017-05-03T05:56:48.537Z,11.80
2017-05-03T05:59:17.007Z,12.50
2017-05-03T06:01:46.038Z,12.90
2017-05-03T06:04:13.721Z,12.80
2017-05-03T06:06:41.365Z,13.10
2017-05-03T06:09:10.126Z,13.80
2017-05-03T06:11:37.764Z,13.80
2017-05-03T06:14:05.413Z,14.50
2017-05-03T06:16:33.357Z,15.50
2017-05-03T06:19:01.010Z,16.10
2017-05-03T06:21:28.677Z,16.70
2017-05-03T06:23:56.605Z,17.40
2017-05-03T06:26:24.221Z,18.20
2017-05-03T06:28:52.609Z,19.10
2017-05-03T06:31:20.578Z,19.10
2017-05-03T06:33:48.211Z,20.50
2017-05-03T06:36:16.589Z,21.60
2017-05-03T06:38:44.533Z,21.50
2017-05-03T06:41:12.147Z,21.80
2017-05-03T06:43:40.545Z,22.30
2017-05-03T06:46:09.309Z,21.60
2017-05-03T06:48:36.920Z,21.50
2017-05-03T06:51:04.524Z,21.20
2017-05-03T06:53:32.424Z,20.80
2017-05-03T06:56:00.812Z,21.60
2017-05-03T06:58:28.425Z,21.60
2017-05-03T07:00:56.345Z,22.30
2017-05-03T07:03:23.961Z,22.40
2017-05-03T07:05:51.585Z,21.90
2017-05-03T07:08:19.561Z,21.70
2017-05-03T07:10:47.180Z,22.00
2017-05-03T07:13:15.565Z,21.80
2017-05-03T07:15:43.532Z,21.70
2017-05-03T07:18:11.145Z,22.00
2017-05-03T07:20:39.517Z,21.90
2017-05-03T07:23:08.309Z,21.70
2017-05-03T07:25:35.922Z,21.70
2017-05-03T07:28:03.646Z,22.30
2017-05-03T07:30:31.564Z,22.30
2017-05-03T07:32:59.949Z,22.50
2017-05-03T07:35:27.560Z,22.40
2017-05-03T07:37:55.522Z,21.90
2017-05-03T07:40:23.141Z,22.00
2017-05-03T07:42:51.531Z,22.30
2017-05-03T07:45:19.489Z,22.30
2017-05-03T07:47:47.104Z,22.80
2017-05-03T07:50:15.484Z,23.20
2017-05-03T07:52:43.441Z,23.10
2017-05-03T07:55:11.110Z,22.70
2017-05-03T07:57:39.496Z,22.80
2017-05-03T08:00:07.406Z,22.70
2017-05-03T08:02:35.016Z,23.10
2017-05-03T08:05:02.628Z,22.90
2017-05-03T08:07:31.373Z,22.00
2017-05-03T08:09:58.997Z,21.90
2017-05-03T08:12:27.393Z,22.50
2017-05-03T08:14:55.342Z,22.50
2017-05-03T08:17:23.732Z,22.20
2017-05-03T08:19:52.121Z,22.80
2017-05-03T08:22:20.130Z,22.70
2017-05-03T08:24:47.760Z,23.30
2017-05-03T08:27:15.385Z,23.10
2017-05-03T08:29:44.080Z,23.80
2017-05-03T08:32:11.708Z,23.70
2017-05-03T08:34:40.130Z,23.40
2017-05-03T08:37:08.814Z,23.30
2017-05-03T08:39:36.436Z,23.20
2017-05-03T08:42:04.057Z,22.80
2017-05-03T08:44:32.003Z,22.80
2017-05-03T08:46:59.625Z,22.10
2017-05-03T08:49:28.012Z,22.50
2017-05-03T08:51:55.980Z,22.40
2017-05-03T08:54:23.604Z,23.20
2017-05-03T08:56:51.998Z,22.20
2017-05-03T08:59:20.760Z,22.20
2017-05-03T09:01:48.400Z,22.20
2017-05-03T09:04:16.027Z,22.50
2017-05-03T09:06:44.721Z,22.90
2017-05-03T09:09:12.337Z,22.90
2017-05-03T09:11:40.752Z,21.90
2017-05-03T09:14:08.789Z,21.80
2017-05-03T09:16:37.177Z,22.70
2017-05-03T09:19:05.568Z,22.30
2017-05-03T09:21:33.565Z,22.20
2017-05-03T09:24:01.189Z,22.40
2017-05-03T09:26:28.825Z,22.10
2017-05-03T09:28:56.816Z,22.10
2017-05-03T09:31:24.436Z,22.20
2017-05-03T09:33:52.833Z,22.50
2017-05-03T09:36:20.774Z,22.50
2017-05-03T09:38:48.396Z,22.50
2017-05-03T09:41:16.777Z,23.00
2017-05-03T09:43:44.689Z,23.00
2017-05-03T09:46:12.313Z,21.90
2017-05-03T09:48:40.697Z,21.00
2017-05-03T09:51:08.626Z,20.90
2017-05-03T09:53:36.246Z,21.30
2017-05-03T09:56:03.937Z,21.10
2017-05-03T09:58:31.951Z,20.90
2017-05-03T10:00:59.571Z,20.40
2017-05-03T10:03:27.952Z,20.20
2017-05-03T10:05:55.865Z,20.10
2017-05-03T10:08:23.493Z,19.70
2017-05-03T10:10:51.112Z,20.30
2017-05-03T10:13:19.829Z,19.50
2017-05-03T10:15:47.459Z,19.40
2017-05-03T10:18:15.081Z,19.30
2017-05-03T10:20:43.033Z,18.90
2017-05-03T10:23:10.672Z,19.10
2017-05-03T10:25:38.329Z,18.40
2017-05-03T10:28:07.088Z,17.50
2017-05-03T10:30:34.749Z,17.50
2017-05-03T10:33:03.165Z,16.70
2017-05-03T10:35:31.134Z,16.60
2017-05-03T10:37:59.546Z,16.30
2017-05-03T10:40:27.194Z,16.20
2017-05-03T10:42:55.159Z,16.30
2017-05-03T10:45:23.575Z,15.60
2017-05-03T10:47:51.224Z,15.50
2017-05-03T10:50:19.955Z,15.30
2017-05-03T10:52:48.364Z,15.10
2017-05-03T10:55:16.870Z,15.10
2017-05-03T10:57:46.368Z,14.80
2017-05-03T11:00:14.027Z,14.70
2017-05-03T11:02:42.440Z,14.60
2017-05-03T11:05:10.384Z,14.60
2017-05-03T11:07:38.789Z,14.60
2017-05-03T11:10:06.457Z,14.50
2017-05-03T11:12:35.276Z,14.50
2017-05-03T11:15:02.921Z,14.50
2017-05-03T11:17:30.567Z,14.60
2017-05-03T11:19:58.623Z,14.40
2017-05-03T11:22:26.273Z,14.50
2017-05-03T11:24:53.920Z,14.90
2017-05-03T11:27:22.684Z,15.20
2017-05-03T11:29:50.340Z,15.20
2017-05-03T11:32:18.747Z,15.30
2017-05-03T11:34:47.468Z,14.90
2017-05-03T11:37:15.120Z,14.80
2017-05-03T11:39:43.540Z,14.60
2017-05-03T11:42:12.261Z,14.80
2017-05-03T11:44:39.901Z,14.80
2017-05-03T11:47:07.555Z,15.10
2017-05-03T11:49:35.600Z,15.20
2017-05-03T11:52:03.249Z,15.50
2017-05-03T11:54:30.905Z,15.30
2017-05-03T11:56:58.955Z,14.90
2017-05-03T11:59:26.606Z,15.00
2017-05-03T12:01:54.262Z,15.20
2017-05-03T12:04:23.012Z,15.30
2017-05-03T12:06:50.669Z,15.30
2017-05-03T12:09:18.345Z,15.60
2017-05-03T12:11:47.799Z,15.50
2017-05-03T12:14:15.451Z,15.50
2017-05-03T12:16:43.109Z,15.60
2017-05-03T12:19:11.094Z,15.80
2017-05-03T12:21:39.522Z,15.40
2017-05-03T12:24:07.181Z,15.30
2017-05-03T12:26:35.217Z,15.40
2017-05-03T12:29:02.868Z,15.40
2017-05-03T12:31:30.504Z,15.60
2017-05-03T12:33:58.459Z,15.60
2017-05-03T12:36:26.103Z,15.50
2017-05-03T12:38:53.745Z,15.60
2017-05-03T12:41:21.813Z,15.70
2017-05-03T12:43:50.233Z,15.90
2017-05-03T12:46:18.665Z,15.90
2017-05-03T12:48:46.696Z,15.90
2017-05-03T12:51:14.349Z,15.90
2017-05-03T12:53:42.753Z,16.50
2017-05-03T12:56:10.764Z,16.40
2017-05-03T12:58:38.407Z,16.80
2017-05-03T13:01:06.056Z,16.90
2017-05-03T13:03:34.830Z,16.90
2017-05-03T13:06:03.233Z,16.90
2017-05-03T13:08:31.652Z,17.30
2017-05-03T13:10:59.625Z,17.20
2017-05-03T13:13:27.279Z,17.40
2017-05-03T13:15:54.925Z,17.50
2017-05-03T13:18:23.628Z,17.20
2017-05-03T13:20:52.036Z,17.20
2017-05-03T13:23:20.449Z,17.10
2017-05-03T13:25:49.172Z,16.70
2017-05-03T13:28:16.821Z,16.60
2017-05-03T13:30:45.234Z,16.80
2017-05-03T13:33:13.948Z,16.90
2017-05-03T13:35:41.593Z,16.90
2017-05-03T13:38:10.002Z,17.30
2017-05-03T13:40:38.030Z,17.20
2017-05-03T13:43:05.682Z,17.10
2017-05-03T13:45:33.334Z,17.10
2017-05-03T13:48:01.392Z,16.90
2017-05-03T13:50:29.044Z,16.80
2017-05-03T13:52:57.468Z,16.80
2017-05-03T13:55:25.436Z,16.80
2017-05-03T13:57:53.083Z,17.00
2017-05-03T14:00:20.720Z,17.10
2017-05-03T14:02:48.688Z,17.20
2017-05-03T14:05:16.326Z,17.10
2017-05-03T14:07:43.967Z,17.20
2017-05-03T14:10:12.691Z,17.70
2017-05-03T14:12:41.451Z,17.70
2017-05-03T14:15:09.101Z,17.70
2017-05-03T14:17:37.125Z,17.70
2017-05-03T14:20:04.777Z,17.60
2017-05-03T14:22:33.192Z,17.40
2017-05-03T14:25:02.007Z,17.40
2017-05-03T14:27:29.655Z,17.30
2017-05-03T14:29:57.317Z,17.40
2017-05-03T14:32:26.796Z,17.30
2017-05-03T14:34:55.213Z,17.50
2017-05-03T14:37:23.657Z,17.50
2017-05-03T14:39:52.472Z,17.60
2017-05-03T14:42:20.248Z,17.50
2017-05-03T14:44:47.895Z,17.50
2017-05-03T14:47:16.674Z,17.30
2017-05-03T14:49:44.321Z,17.20
2017-05-03T14:52:12.748Z,17.20
2017-05-03T14:54:40.771Z,17.10
2017-05-03T14:57:09.221Z,16.90
2017-05-03T14:59:37.628Z,17.00
2017-05-03T15:02:06.336Z,17.00
2017-05-03T15:04:34.062Z,16.90
2017-05-03T15:07:01.709Z,16.90
2017-05-03T15:09:29.681Z,16.90
2017-05-03T15:11:57.325Z,16.90
2017-05-03T15:14:25.739Z,17.00
2017-05-03T15:16:54.458Z,17.10
2017-05-03T15:19:22.106Z,17.00
2017-05-03T15:21:49.781Z,17.00
2017-05-03T15:24:17.809Z,16.90
2017-05-03T15:26:45.460Z,16.70
2017-05-03T15:29:13.872Z,16.40
2017-05-03T15:31:42.632Z,16.40
2017-05-03T15:34:10.273Z,16.30
2017-05-03T15:36:38.685Z,16.30
2017-05-03T15:39:06.629Z,16.20
2017-05-03T15:41:34.290Z,16.10
2017-05-03T15:44:01.940Z,16.20
2017-05-03T15:46:30.636Z,16.00
2017-05-03T15:48:58.300Z,15.90
2017-05-03T15:51:25.961Z,15.80
2017-05-03T15:53:54.673Z,15.70
2017-05-03T15:56:23.199Z,15.50
2017-05-03T15:58:51.620Z,15.40
2017-05-03T16:01:19.580Z,15.30
2017-05-03T16:03:47.237Z,15.40
2017-05-03T16:06:14.957Z,15.30
2017-05-03T16:08:42.939Z,15.20
2017-05-03T16:11:10.580Z,15.30
2017-05-03T16:13:38.224Z,15.20
2017-05-03T16:16:06.415Z,15.30
2017-05-03T16:18:34.832Z,15.40
2017-05-03T16:21:02.642Z,15.30
2017-05-03T16:23:31.468Z,15.50
2017-05-03T16:25:59.136Z,15.50
2017-05-03T16:28:26.796Z,15.40
2017-05-03T16:30:55.535Z,15.30
2017-05-03T16:33:23.210Z,15.30
2017-05-03T16:35:50.858Z,15.30
2017-05-03T16:38:20.341Z,15.10
2017-05-03T16:40:47.988Z,15.10
2017-05-03T16:43:15.643Z,15.20
2017-05-03T16:45:43.657Z,15.20
2017-05-03T16:48:15.639Z,15.30
2017-05-03T16:50:44.580Z,15.00
2017-05-03T16:53:12.992Z,14.80
2017-05-03T16:55:41.853Z,14.70
2017-05-03T16:58:11.304Z,14.60
2017-05-03T17:00:39.732Z,14.50
2017-05-03T17:03:08.149Z,14.50
2017-05-03T17:05:36.097Z,14.40
2017-05-03T17:08:03.740Z,14.50
2017-05-03T17:10:31.420Z,14.40
2017-05-03T17:12:59.456Z,14.30
2017-05-03T17:15:27.145Z,14.20
2017-05-03T17:17:55.598Z,14.10
2017-05-03T17:20:24.349Z,14.00
2017-05-03T17:22:51.992Z,13.90
2017-05-03T17:25:19.645Z,13.80
2017-05-03T17:27:49.076Z,13.70
2017-05-03T17:30:17.492Z,13.80
2017-05-03T17:32:45.161Z,13.70
2017-05-03T17:35:13.901Z,13.60
2017-05-03T17:37:41.566Z,13.60
2017-05-03T17:40:09.336Z,13.60
2017-05-03T17:42:37.946Z,13.50
2017-05-03T17:45:05.605Z,13.50
2017-05-03T17:47:33.711Z,13.50
2017-05-03T17:50:02.532Z,13.40
2017-05-03T17:52:30.971Z,13.40
2017-05-03T17:54:59.408Z,13.30
2017-05-03T17:57:28.131Z,13.20
2017-05-03T17:59:55.838Z,13.10
2017-05-03T18:02:24.268Z,13.20
2017-05-03T18:04:53.004Z,13.10
2017-05-03T18:07:20.779Z,13.10
2017-05-03T18:09:48.500Z,13.10
2017-05-03T18:12:16.485Z,13.20
2017-05-03T18:14:44.912Z,13.00
2017-05-03T18:17:12.576Z,12.90
2017-05-03T18:19:40.578Z,13.00
2017-05-03T18:22:08.226Z,13.00
2017-05-03T18:24:35.887Z,12.90
2017-05-03T18:27:04.604Z,12.90
2017-05-03T18:29:33.085Z,12.90
2017-05-03T18:32:01.498Z,12.80
2017-05-03T18:34:30.319Z,12.90
2017-05-03T18:36:58.729Z,12.80
2017-05-03T18:39:27.133Z,12.80
2017-05-03T18:41:55.108Z,12.80
2017-05-03T18:44:22.753Z,12.80
2017-05-03T18:46:50.400Z,12.90
2017-05-03T18:49:18.429Z,12.70
2017-05-03T18:51:46.082Z,12.70
2017-05-03T18:54:13.730Z,12.80
2017-05-03T18:56:42.459Z,12.80
2017-05-03T18:59:10.103Z,12.70
2017-05-03T19:01:38.522Z,12.70
2017-05-03T19:04:07.236Z,12.70
2017-05-03T19:06:35.646Z,12.60
2017-05-03T19:09:03.330Z,12.50
2017-05-03T19:11:32.075Z,12.50
2017-05-03T19:13:59.836Z,12.50
2017-05-03T19:16:27.594Z,12.50
2017-05-03T19:18:57.179Z,12.50
2017-05-03T19:21:25.695Z,12.40
2017-05-03T19:23:54.251Z,12.40
2017-05-03T19:26:23.064Z,12.40
2017-05-03T19:28:50.793Z,12.40
2017-05-03T19:31:18.543Z,12.50
2017-05-03T19:33:46.626Z,12.50
2017-05-03T19:36:14.373Z,12.50
2017-05-03T19:38:42.869Z,12.50
2017-05-03T19:41:11.886Z,12.40
2017-05-03T19:43:39.536Z,12.50
2017-05-03T19:46:07.189Z,12.50
2017-05-03T19:48:35.593Z,12.50
2017-05-03T19:51:04.000Z,12.60
2017-05-03T19:53:32.408Z,12.50
2017-05-03T19:56:00.365Z,12.40
2017-05-03T19:58:28.720Z,12.50
2017-05-03T20:00:56.377Z,12.50
2017-05-03T20:03:25.820Z,12.50
2017-05-03T20:05:54.228Z,12.50
2017-05-03T20:08:21.872Z,12.40
2017-05-03T20:10:49.930Z,12.50
2017-05-03T20:13:17.689Z,12.40
2017-05-03T20:15:46.109Z,12.50
2017-05-03T20:18:14.923Z,12.50
2017-05-03T20:20:42.579Z,12.40
2017-05-03T20:23:10.243Z,12.40
2017-05-03T20:25:38.296Z,12.30
2017-05-03T20:28:06.875Z,12.50
2017-05-03T20:30:35.293Z,12.50
2017-05-03T20:33:03.985Z,12.50
2017-05-03T20:35:31.681Z,12.50
2017-05-03T20:37:59.330Z,12.50
2017-05-03T20:40:27.011Z,12.50
2017-05-03T20:42:54.660Z,12.40
2017-05-03T20:45:22.332Z,12.50
2017-05-03T20:47:51.491Z,12.40
2017-05-03T20:50:19.932Z,12.40
2017-05-03T20:52:47.588Z,12.40
2017-05-03T20:55:15.530Z,12.40
2017-05-03T20:57:43.198Z,12.40
2017-05-03T21:00:10.854Z,12.50
2017-05-03T21:02:38.640Z,12.40
2017-05-03T21:05:07.056Z,12.40
2017-05-03T21:07:35.838Z,12.40
2017-05-03T21:10:04.247Z,12.40
2017-05-03T21:12:32.667Z,12.40
2017-05-03T21:15:01.101Z,12.50
2017-05-03T21:17:28.741Z,12.40
2017-05-03T21:19:56.730Z,12.40
2017-05-03T21:22:24.609Z,12.30
2017-05-03T21:24:53.040Z,12.30
2017-05-03T21:27:21.476Z,12.20
2017-05-03T21:29:49.120Z,12.20
2017-05-03T21:32:18.124Z,12.10
2017-05-03T21:34:45.801Z,12.10
2017-05-03T21:37:13.453Z,12.20
2017-05-03T21:39:41.889Z,12.20
2017-05-03T21:42:09.537Z,12.20
2017-05-03T21:44:37.204Z,12.10
2017-05-03T21:47:04.849Z,12.20
2017-05-03T21:49:32.520Z,12.20
2017-05-03T21:52:00.169Z,12.20
2017-05-03T21:54:28.602Z,12.10
2017-05-03T21:56:56.246Z,12.10
2017-05-03T21:59:23.912Z,12.10
2017-05-03T22:01:51.567Z,12.20
2017-05-03T22:04:20.741Z,12.10
2017-05-03T22:06:49.925Z,12.00
2017-05-03T22:09:18.660Z,12.00
2017-05-03T22:11:46.308Z,12.00
2017-05-03T22:14:14.717Z,12.00
2017-05-03T22:16:42.384Z,11.90
2017-05-03T22:19:10.798Z,11.90
2017-05-03T22:21:38.464Z,11.80
2017-05-03T22:24:06.114Z,11.90
2017-05-03T22:26:33.785Z,12.00
2017-05-03T22:29:02.201Z,11.90
2017-05-03T22:31:29.872Z,11.80
2017-05-03T22:33:57.513Z,11.90
2017-05-03T22:36:26.982Z,11.90
2017-05-03T22:38:54.624Z,11.90
2017-05-03T22:41:22.264Z,11.90
2017-05-03T22:43:49.937Z,11.90
2017-05-03T22:46:17.663Z,11.90
2017-05-03T22:48:45.341Z,11.90
2017-05-03T22:51:12.985Z,11.80
2017-05-03T22:53:40.666Z,11.90
2017-05-03T22:56:08.321Z,11.90
2017-05-03T22:58:36.760Z,11.70
2017-05-03T23:01:05.167Z,11.60
2017-05-03T23:03:32.829Z,11.50
2017-05-03T23:06:01.241Z,11.50
2017-05-03T23:08:29.686Z,11.40
2017-05-03T23:10:57.338Z,11.40
2017-05-03T23:13:25.766Z,11.30
2017-05-03T23:15:53.403Z,11.20
2017-05-03T23:18:21.076Z,11.20
2017-05-03T23:20:48.725Z,11.10
2017-05-03T23:23:16.396Z,11.10
2017-05-03T23:25:44.045Z,11.00
2017-05-03T23:28:12.477Z,11.00
2017-05-03T23:30:40.879Z,11.10
2017-05-03T23:33:09.290Z,11.10
2017-05-03T23:35:36.960Z,11.00
2017-05-03T23:38:04.605Z,11.10
2017-05-03T23:40:32.273Z,11.10
2017-05-03T23:42:59.929Z,11.00
2017-05-03T23:45:28.368Z,11.00
2017-05-03T23:47:56.023Z,11.00
2017-05-03T23:50:24.093Z,11.00
2017-05-03T23:52:51.737Z,11.00
2017-05-03T23:55:19.380Z,10.90
2017-05-03T23:57:47.049Z,11.00
